Time;durP1;ratioP1;P1;durP2;ratioP2;P2;SDS_P1;SDS_P2;PMS_P1;PMS_P2;Temp;Humidity;BMP_temperature;BMP_pressure;BME280_temperature;BME280_humidity;BME280_pressure;Samples;Min_cycle;Max_cycle;Signal;HPM_P1;HPM_P2
2021/12/03 00:00:28;;;;;;;22.08;12.85;;;0.80;99.90;;;;;;5013335;23;20021;-80
2021/12/03 00:02:29;;;;;;;22.70;12.18;;;0.80;99.90;;;;;;5015599;23;20011;-80
2021/12/03 00:04:30;;;;;;;22.65;12.73;;;0.70;99.90;;;;;;5013159;23;20495;-80
2021/12/03 00:06:35;;;;;;;19.52;10.65;;;0.70;99.90;;;;;;5015648;23;20015;-79
2021/12/03 00:08:36;;;;;;;24.10;11.85;;;0.70;99.90;;;;;;5016115;23;20351;-78
2021/12/03 00:10:38;;;;;;;17.05;10.88;;;0.80;99.90;;;;;;5018267;23;20021;-79
2021/12/03 00:12:39;;;;;;;20.42;12.90;;;0.80;99.90;;;;;;5015464;23;20523;-80
2021/12/03 00:14:40;;;;;;;20.17;11.57;;;0.80;99.90;;;;;;5016560;23;20046;-78
2021/12/03 00:16:41;;;;;;;17.23;10.05;;;0.80;99.90;;;;;;5018167;23;20069;-79
2021/12/03 00:18:41;;;;;;;21.42;11.75;;;0.80;99.90;;;;;;5018517;23;20027;-79
2021/12/03 00:20:42;;;;;;;24.20;13.75;;;0.80;99.90;;;;;;5016128;23;20015;-79
2021/12/03 00:22:45;;;;;;;16.67;11.57;;;0.70;99.90;;;;;;5018072;23;20022;-78
2021/12/03 00:24:45;;;;;;;23.23;10.95;;;0.70;99.90;;;;;;5017789;23;20052;-78
2021/12/03 00:26:46;;;;;;;24.05;11.43;;;0.70;99.90;;;;;;5016184;23;20042;-78
2021/12/03 00:28:47;;;;;;;20.60;10.23;;;0.70;99.90;;;;;;5017057;23;20348;-78
2021/12/03 00:30:48;;;;;;;21.13;11.82;;;0.70;99.90;;;;;;5016029;23;20015;-79
2021/12/03 00:32:49;;;;;;;19.80;10.30;;;0.60;99.90;;;;;;5016147;23;20376;-78
2021/12/03 00:34:50;;;;;;;20.92;11.50;;;0.60;99.90;;;;;;5015905;23;20050;-78
2021/12/03 00:36:51;;;;;;;17.25;10.90;;;0.50;99.90;;;;;;5016042;23;20019;-78
2021/12/03 00:38:55;;;;;;;14.68;9.63;;;0.50;99.90;;;;;;5017683;23;20018;-79
2021/12/03 00:40:56;;;;;;;20.45;12.23;;;0.60;99.90;;;;;;5015755;23;20007;-78
2021/12/03 00:42:58;;;;;;;24.95;13.65;;;0.60;99.90;;;;;;5016993;23;20082;-77
2021/12/03 00:44:58;;;;;;;21.42;11.45;;;0.60;99.90;;;;;;5017274;23;20039;-78
2021/12/03 00:46:59;;;;;;;15.48;9.48;;;0.60;99.90;;;;;;5017545;23;20094;-78
2021/12/03 00:49:00;;;;;;;19.35;9.85;;;0.70;99.90;;;;;;5017842;23;20018;-80
2021/12/03 00:51:00;;;;;;;25.20;12.73;;;0.70;99.90;;;;;;5018041;23;20023;-80
2021/12/03 00:53:02;;;;;;;24.27;13.18;;;0.60;99.90;;;;;;5018382;23;20026;-79
2021/12/03 00:55:04;;;;;;;23.58;12.45;;;0.60;99.90;;;;;;5015058;23;20034;-79
2021/12/03 00:57:05;;;;;;;24.17;12.48;;;0.60;99.90;;;;;;5016604;23;20154;-81
2021/12/03 00:59:06;;;;;;;23.40;12.63;;;0.50;99.90;;;;;;5014514;23;20023;-81
2021/12/03 01:01:08;;;;;;;28.48;15.10;;;0.50;99.90;;;;;;5017116;23;20011;-80
2021/12/03 01:03:09;;;;;;;32.60;14.38;;;0.50;99.90;;;;;;5016023;23;20014;-81
2021/12/03 01:05:10;;;;;;;26.08;15.88;;;0.50;99.90;;;;;;5015201;23;20022;-80
2021/12/03 01:07:10;;;;;;;36.42;15.18;;;0.60;99.90;;;;;;5016111;23;20820;-80
2021/12/03 01:09:11;;;;;;;34.92;17.25;;;0.60;99.90;;;;;;5014654;23;20022;-81
2021/12/03 01:11:12;;;;;;;29.00;12.60;;;0.60;99.90;;;;;;5013897;23;20022;-79
2021/12/03 01:13:13;;;;;;;28.90;17.58;;;0.50;99.90;;;;;;5016133;23;20019;-80
2021/12/03 01:15:18;;;;;;;28.52;14.75;;;0.60;99.90;;;;;;5014989;23;20023;-79
2021/12/03 01:17:18;;;;;;;24.10;11.07;;;0.60;99.90;;;;;;5016776;23;20097;-79
2021/12/03 01:19:19;;;;;;;31.27;17.60;;;0.70;99.90;;;;;;5016519;23;20343;-79
2021/12/03 01:21:21;;;;;;;38.95;17.55;;;0.80;99.90;;;;;;5012817;23;20018;-77
2021/12/03 01:23:22;;;;;;;34.10;14.65;;;0.80;99.90;;;;;;5014615;23;20244;-79
2021/12/03 01:25:22;;;;;;;27.63;17.33;;;0.80;99.90;;;;;;5015133;23;20019;-77
2021/12/03 01:27:23;;;;;;;26.33;16.42;;;0.90;99.90;;;;;;5013567;23;20021;-77
2021/12/03 01:29:24;;;;;;;27.23;15.93;;;1.00;99.90;;;;;;5012615;23;20379;-78
2021/12/03 01:31:25;;;;;;;33.42;17.80;;;1.00;99.90;;;;;;5013958;23;20021;-78
2021/12/03 01:33:25;;;;;;;24.63;12.05;;;1.00;99.90;;;;;;5015858;23;20443;-78
2021/12/03 01:35:27;;;;;;;28.55;16.15;;;1.00;99.90;;;;;;5015694;23;20103;-77
2021/12/03 01:37:28;;;;;;;26.73;15.80;;;1.00;99.90;;;;;;5014348;23;20098;-78
2021/12/03 01:39:28;;;;;;;32.45;16.83;;;1.10;99.90;;;;;;5015729;23;20443;-77
2021/12/03 01:41:31;;;;;;;22.92;12.93;;;1.00;99.90;;;;;;5014202;23;20400;-77
2021/12/03 01:43:32;;;;;;;28.13;16.13;;;1.00;99.90;;;;;;5013184;23;20019;-76
2021/12/03 01:45:38;;;;;;;38.47;17.85;;;1.10;99.90;;;;;;5015881;23;20017;-77
2021/12/03 01:47:41;;;;;;;31.42;15.23;;;1.10;99.90;;;;;;5015884;23;20015;-77
2021/12/03 01:49:42;;;;;;;33.33;16.35;;;1.00;99.90;;;;;;5015949;23;20018;-77
2021/12/03 01:51:43;;;;;;;33.58;15.23;;;1.00;99.90;;;;;;5016087;23;20007;-77
2021/12/03 01:53:44;;;;;;;30.05;15.60;;;1.00;99.90;;;;;;5015361;23;20436;-77
2021/12/03 01:55:46;;;;;;;34.28;16.33;;;1.00;99.90;;;;;;5010115;23;20015;-78
2021/12/03 01:57:47;;;;;;;30.63;16.48;;;1.00;99.90;;;;;;5011208;23;20014;-78
2021/12/03 01:59:47;;;;;;;27.20;15.80;;;0.90;99.90;;;;;;5015991;23;20049;-78
2021/12/03 02:01:49;;;;;;;29.45;15.25;;;1.00;99.90;;;;;;5013860;23;20066;-78
2021/12/03 02:03:52;;;;;;;33.83;16.52;;;1.00;99.90;;;;;;5014443;23;20039;-76
2021/12/03 02:05:54;;;;;;;35.95;17.75;;;1.10;99.90;;;;;;5014154;23;20130;-77
2021/12/03 02:07:55;;;;;;;29.30;16.40;;;1.10;99.90;;;;;;5016132;23;20102;-77
2021/12/03 02:09:56;;;;;;;21.02;10.95;;;1.00;99.90;;;;;;5013519;23;20022;-77
2021/12/03 02:11:56;;;;;;;38.70;16.42;;;1.10;99.90;;;;;;5015796;23;20523;-77
2021/12/03 02:13:57;;;;;;;36.60;17.48;;;1.10;99.90;;;;;;5014823;23;20015;-78
2021/12/03 02:15:58;;;;;;;30.25;17.77;;;1.10;99.90;;;;;;5015556;23;20371;-77
2021/12/03 02:17:59;;;;;;;34.63;17.05;;;1.10;99.90;;;;;;5015649;23;20025;-77
2021/12/03 02:20:00;;;;;;;33.70;15.98;;;1.10;99.90;;;;;;5014233;23;20023;-77
2021/12/03 02:22:00;;;;;;;41.22;17.75;;;1.20;99.90;;;;;;5015674;23;20789;-78
2021/12/03 02:24:01;;;;;;;37.80;18.55;;;1.20;99.90;;;;;;5015477;23;20451;-78
2021/12/03 02:26:02;;;;;;;33.53;17.73;;;1.20;99.90;;;;;;5013437;23;20038;-78
2021/12/03 02:28:03;;;;;;;38.03;16.92;;;1.30;99.90;;;;;;5013858;23;20021;-78
2021/12/03 02:30:06;;;;;;;23.08;11.90;;;1.30;99.90;;;;;;5013630;23;20022;-77
2021/12/03 02:32:07;;;;;;;30.92;17.42;;;1.40;99.90;;;;;;5013717;23;20117;-78
2021/12/03 02:34:08;;;;;;;30.60;17.48;;;1.40;99.90;;;;;;5013561;23;20068;-77
2021/12/03 02:36:09;;;;;;;26.85;14.50;;;1.30;99.90;;;;;;5013696;23;20015;-78
2021/12/03 02:38:16;;;;;;;34.00;17.52;;;1.30;99.90;;;;;;5013669;23;20010;-78
2021/12/03 02:40:17;;;;;;;33.67;16.67;;;1.30;99.90;;;;;;5013723;23;20075;-77
2021/12/03 02:42:18;;;;;;;31.23;14.05;;;1.20;99.90;;;;;;5013552;23;20015;-77
2021/12/03 02:44:19;;;;;;;30.95;16.80;;;1.30;99.90;;;;;;5014227;23;20029;-76
2021/12/03 02:46:19;;;;;;;27.60;17.17;;;1.20;99.90;;;;;;5015523;23;20025;-77
2021/12/03 02:48:21;;;;;;;30.58;17.17;;;1.20;99.90;;;;;;5013374;23;20045;-77
2021/12/03 02:50:22;;;;;;;27.70;13.73;;;1.10;99.90;;;;;;5014120;23;20444;-77
2021/12/03 02:52:23;;;;;;;27.42;14.60;;;1.20;99.90;;;;;;5015105;23;20026;-77
2021/12/03 02:54:23;;;;;;;32.00;15.93;;;1.30;99.90;;;;;;5015190;23;20023;-77
2021/12/03 02:56:24;;;;;;;39.05;16.33;;;1.30;99.90;;;;;;5015263;23;20126;-77
2021/12/03 02:58:25;;;;;;;26.00;14.70;;;1.30;99.90;;;;;;5015603;23;20385;-77
2021/12/03 03:00:27;;;;;;;29.15;15.90;;;1.30;99.90;;;;;;5013379;23;20015;-77
2021/12/03 03:02:28;;;;;;;31.33;15.90;;;1.30;99.90;;;;;;5016018;23;20022;-76
2021/12/03 03:04:30;;;;;;;38.97;16.08;;;1.30;99.90;;;;;;5015180;23;20026;-77
2021/12/03 03:06:31;;;;;;;32.25;17.25;;;1.30;99.90;;;;;;5015352;23;20015;-77
2021/12/03 03:08:32;;;;;;;40.13;15.60;;;1.20;99.90;;;;;;5013363;23;20036;-76
2021/12/03 03:10:41;;;;;;;31.90;16.50;;;1.20;99.90;;;;;;5015412;23;20440;-76
2021/12/03 03:12:43;;;;;;;39.83;17.60;;;1.30;99.90;;;;;;5015285;23;20022;-76
2021/12/03 03:14:51;;;;;;;43.95;18.83;;;1.30;99.90;;;;;;5014685;23;20022;-77
2021/12/03 03:16:52;;;;;;;34.30;17.77;;;1.20;99.90;;;;;;5015354;23;20437;-76
2021/12/03 03:18:53;;;;;;;37.20;17.77;;;1.30;99.90;;;;;;5014744;23;20376;-76
2021/12/03 03:20:56;;;;;;;38.05;17.92;;;1.40;99.90;;;;;;5013235;23;20023;-77
2021/12/03 03:22:56;;;;;;;30.48;16.05;;;1.30;99.90;;;;;;5013364;23;20019;-77
2021/12/03 03:24:59;;;;;;;28.83;14.82;;;1.30;99.90;;;;;;5013903;23;20015;-77
2021/12/03 03:27:01;;;;;;;34.33;16.83;;;1.40;99.90;;;;;;5014717;23;20014;-75
2021/12/03 03:29:04;;;;;;;46.65;18.90;;;1.40;99.90;;;;;;5013118;23;20064;-77
2021/12/03 03:31:05;;;;;;;40.88;19.58;;;1.40;99.90;;;;;;5014672;23;20093;-77
2021/12/03 03:33:06;;;;;;;41.83;19.13;;;1.40;99.90;;;;;;5015143;23;20018;-77
2021/12/03 03:35:07;;;;;;;36.28;17.83;;;1.40;99.90;;;;;;5013313;23;20011;-76
2021/12/03 03:37:09;;;;;;;37.63;18.00;;;1.50;99.90;;;;;;5013423;23;20105;-77
2021/12/03 03:39:13;;;;;;;39.22;19.42;;;1.40;99.90;;;;;;5012650;23;20215;-77
2021/12/03 03:41:13;;;;;;;38.78;20.23;;;1.30;99.90;;;;;;5013634;23;20022;-77
2021/12/03 03:43:15;;;;;;;41.78;19.92;;;1.20;99.90;;;;;;5014503;23;20492;-77
2021/12/03 03:45:19;;;;;;;38.55;16.77;;;1.30;99.90;;;;;;5014500;23;20309;-76
2021/12/03 03:47:20;;;;;;;33.30;16.60;;;1.30;99.90;;;;;;5014579;23;20018;-76
2021/12/03 03:49:23;;;;;;;38.67;18.15;;;1.40;99.90;;;;;;5013246;23;20018;-76
2021/12/03 03:51:23;;;;;;;40.97;18.23;;;1.30;99.90;;;;;;5015194;23;20098;-76
2021/12/03 03:53:24;;;;;;;39.22;17.88;;;1.20;99.90;;;;;;5013122;23;20011;-76
2021/12/03 03:55:26;;;;;;;37.67;17.33;;;1.20;99.90;;;;;;5014838;23;20023;-76
2021/12/03 03:57:27;;;;;;;40.05;18.92;;;1.30;99.90;;;;;;5010057;23;20019;-76
2021/12/03 03:59:27;;;;;;;47.55;20.80;;;1.20;99.90;;;;;;5009356;23;20102;-76
2021/12/03 04:01:28;;;;;;;48.65;22.42;;;1.20;99.90;;;;;;5014672;23;20109;-77
2021/12/03 04:03:30;;;;;;;55.15;22.85;;;1.20;99.90;;;;;;5013675;23;20122;-77
2021/12/03 04:05:31;;;;;;;45.63;21.48;;;1.20;99.90;;;;;;5012901;23;20147;-77
2021/12/03 04:07:32;;;;;;;45.63;20.90;;;1.10;99.90;;;;;;5014765;23;20086;-77
2021/12/03 04:09:33;;;;;;;46.38;22.98;;;1.10;99.90;;;;;;5014493;23;20019;-77
2021/12/03 04:11:34;;;;;;;43.33;19.65;;;1.10;99.90;;;;;;5013392;23;20355;-77
2021/12/03 04:13:35;;;;;;;36.65;18.98;;;1.10;99.90;;;;;;5013950;23;20011;-77
2021/12/03 04:15:37;;;;;;;50.50;21.70;;;1.20;99.90;;;;;;5013423;23;20058;-77
2021/12/03 04:17:38;;;;;;;45.72;22.83;;;1.20;99.90;;;;;;5012771;23;20736;-77
2021/12/03 04:19:39;;;;;;;53.03;24.55;;;1.00;99.90;;;;;;5013428;23;20018;-77
2021/12/03 04:21:40;;;;;;;58.78;27.15;;;0.90;99.90;;;;;;5014521;23;20011;-77
2021/12/03 04:23:41;;;;;;;57.75;25.10;;;0.80;99.90;;;;;;5013068;23;20101;-77
2021/12/03 04:25:41;;;;;;;57.80;25.67;;;0.80;99.90;;;;;;5014702;23;20015;-77
2021/12/03 04:27:43;;;;;;;60.15;27.15;;;0.80;99.90;;;;;;5013051;23;20042;-77
2021/12/03 04:29:44;;;;;;;56.65;26.95;;;0.80;99.90;;;;;;5012492;23;20344;-77
2021/12/03 04:31:45;;;;;;;54.95;25.80;;;0.70;99.90;;;;;;5015264;23;20053;-77
2021/12/03 04:33:45;;;;;;;56.85;26.08;;;0.60;99.90;;;;;;5013011;23;20015;-76
2021/12/03 04:35:46;;;;;;;70.15;28.60;;;0.60;99.90;;;;;;5014673;23;20015;-77
2021/12/03 04:37:47;;;;;;;60.92;25.80;;;0.60;99.90;;;;;;5012867;23;20019;-77
2021/12/03 04:39:48;;;;;;;76.30;30.90;;;0.60;99.90;;;;;;5013028;23;20094;-76
2021/12/03 04:41:49;;;;;;;69.60;29.35;;;0.60;99.90;;;;;;5013330;23;20106;-77
2021/12/03 04:43:50;;;;;;;74.82;29.65;;;0.70;99.90;;;;;;5014768;23;20057;-77
2021/12/03 04:45:51;;;;;;;65.13;29.67;;;0.70;99.90;;;;;;5012815;23;20030;-77
2021/12/03 04:47:53;;;;;;;72.80;33.33;;;0.70;99.90;;;;;;5012710;23;20023;-77
2021/12/03 04:49:54;;;;;;;71.32;33.20;;;0.70;99.90;;;;;;5015013;23;20021;-77
2021/12/03 04:51:55;;;;;;;68.65;30.15;;;0.70;99.90;;;;;;5012826;23;20026;-77
2021/12/03 04:53:55;;;;;;;71.15;33.10;;;0.80;99.90;;;;;;5013296;23;20025;-77
2021/12/03 04:55:56;;;;;;;72.60;32.17;;;0.90;99.90;;;;;;5015425;23;20039;-78
2021/12/03 04:57:57;;;;;;;66.03;29.02;;;0.80;99.90;;;;;;5016795;23;20034;-77
2021/12/03 04:59:57;;;;;;;77.22;32.20;;;0.80;99.90;;;;;;5013489;23;20018;-78
2021/12/03 05:01:58;;;;;;;78.15;34.05;;;1.00;99.90;;;;;;5014662;23;20135;-77
2021/12/03 05:03:59;;;;;;;68.18;30.30;;;0.90;99.90;;;;;;5015363;23;20015;-77
2021/12/03 05:06:02;;;;;;;74.32;31.48;;;0.90;99.90;;;;;;5014592;23;20022;-77
2021/12/03 05:08:07;;;;;;;72.82;30.02;;;1.00;99.90;;;;;;5014933;23;20051;-76
2021/12/03 05:10:09;;;;;;;72.45;31.63;;;1.00;99.90;;;;;;5016636;23;20432;-77
2021/12/03 05:12:10;;;;;;;76.55;32.88;;;1.00;99.90;;;;;;5015872;23;20014;-75
2021/12/03 05:14:11;;;;;;;59.85;29.75;;;1.10;99.90;;;;;;5015853;23;20019;-77
2021/12/03 05:16:12;;;;;;;70.47;32.05;;;1.20;99.90;;;;;;5014232;23;20021;-76
2021/12/03 05:18:18;;;;;;;61.10;25.92;;;1.20;99.90;;;;;;5016226;23;20022;-77
2021/12/03 05:20:19;;;;;;;67.28;27.17;;;1.20;99.90;;;;;;5016381;23;20022;-77
2021/12/03 05:22:20;;;;;;;68.30;31.33;;;1.30;99.90;;;;;;5014609;23;20067;-77
2021/12/03 05:24:21;;;;;;;60.08;29.50;;;1.40;99.90;;;;;;5014254;23;20471;-77
2021/12/03 05:26:22;;;;;;;61.67;29.88;;;1.30;99.90;;;;;;5014318;23;20018;-77
2021/12/03 05:28:25;;;;;;;64.35;28.40;;;1.40;99.90;;;;;;5014040;23;20488;-77
2021/12/03 05:30:26;;;;;;;68.55;31.65;;;1.40;99.90;;;;;;5013782;23;20011;-77
2021/12/03 05:32:27;;;;;;;64.78;31.45;;;1.40;99.90;;;;;;5014213;23;20081;-77
2021/12/03 05:34:28;;;;;;;63.30;30.77;;;1.50;99.90;;;;;;5014048;23;20035;-77
2021/12/03 05:36:29;;;;;;;70.85;33.33;;;1.50;99.90;;;;;;5014217;23;20015;-77
2021/12/03 05:38:29;;;;;;;67.65;29.75;;;1.40;99.90;;;;;;5013663;23;20324;-76
2021/12/03 05:40:31;;;;;;;59.75;27.42;;;1.40;99.90;;;;;;5016160;23;20014;-76
2021/12/03 05:42:32;;;;;;;77.82;30.80;;;1.40;99.90;;;;;;5015399;23;20023;-77
2021/12/03 05:44:32;;;;;;;67.22;29.95;;;1.40;99.90;;;;;;5013692;23;20015;-77
2021/12/03 05:46:33;;;;;;;67.18;25.35;;;1.50;99.90;;;;;;5013169;23;20416;-76
2021/12/03 05:48:34;;;;;;;63.85;29.92;;;1.50;99.90;;;;;;5013726;23;20014;-78
2021/12/03 05:50:35;;;;;;;61.20;29.08;;;1.60;99.90;;;;;;5015324;23;20369;-77
2021/12/03 05:52:36;;;;;;;51.65;23.33;;;1.70;99.90;;;;;;5016155;23;20538;-76
2021/12/03 05:54:37;;;;;;;59.67;25.65;;;1.80;99.90;;;;;;5014807;23;20033;-76
2021/12/03 05:56:37;;;;;;;66.40;27.52;;;1.80;99.90;;;;;;5014037;23;20141;-77
2021/12/03 05:58:38;;;;;;;71.85;28.63;;;1.80;99.90;;;;;;5014764;23;20014;-77
2021/12/03 06:00:40;;;;;;;65.20;26.45;;;1.80;99.90;;;;;;5007016;23;20797;-77
2021/12/03 06:02:41;;;;;;;66.38;28.75;;;1.80;99.90;;;;;;5013770;23;20025;-78
2021/12/03 06:04:42;;;;;;;52.33;25.23;;;1.90;99.90;;;;;;5014518;23;20578;-78
2021/12/03 06:06:43;;;;;;;53.95;24.02;;;1.80;99.90;;;;;;5015201;23;20049;-77
2021/12/03 06:08:44;;;;;;;55.13;23.00;;;1.90;99.90;;;;;;5015803;23;20347;-77
2021/12/03 06:10:44;;;;;;;65.03;29.30;;;2.00;99.90;;;;;;5015681;23;20019;-77
2021/12/03 06:12:46;;;;;;;61.42;26.70;;;1.90;99.90;;;;;;5013401;23;20046;-77
2021/12/03 06:14:47;;;;;;;45.55;20.33;;;1.90;99.90;;;;;;5013598;23;20023;-77
2021/12/03 06:16:47;;;;;;;47.70;21.88;;;2.00;99.90;;;;;;5015069;23;20015;-77
2021/12/03 06:18:48;;;;;;;57.22;23.30;;;2.00;99.90;;;;;;5015610;23;20070;-78
2021/12/03 06:20:49;;;;;;;62.70;27.63;;;2.10;99.90;;;;;;5013053;23;20019;-77
2021/12/03 06:22:50;;;;;;;64.55;28.90;;;2.00;99.90;;;;;;5015319;23;20078;-77
2021/12/03 06:24:51;;;;;;;66.55;27.77;;;2.00;99.90;;;;;;5015730;23;20093;-77
2021/12/03 06:26:52;;;;;;;60.15;26.40;;;1.90;99.90;;;;;;5015733;23;20039;-77
2021/12/03 06:28:52;;;;;;;53.53;23.48;;;2.00;99.90;;;;;;5013928;23;20023;-78
2021/12/03 06:30:53;;;;;;;64.70;23.80;;;2.10;99.90;;;;;;5013779;23;20026;-77
2021/12/03 06:32:55;;;;;;;59.88;25.58;;;2.10;99.90;;;;;;5013354;23;20689;-77
2021/12/03 06:34:55;;;;;;;68.40;28.40;;;2.10;99.90;;;;;;5015751;23;20103;-78
2021/12/03 06:36:56;;;;;;;70.50;22.25;;;2.10;99.90;;;;;;5012991;23;20019;-77
2021/12/03 06:38:57;;;;;;;52.15;22.45;;;2.10;99.90;;;;;;5015556;23;20021;-77
2021/12/03 06:40:58;;;;;;;67.88;25.73;;;2.20;99.90;;;;;;5014363;23;20363;-78
2021/12/03 06:42:58;;;;;;;48.53;22.23;;;2.20;99.90;;;;;;5013490;23;20073;-76
2021/12/03 06:45:01;;;;;;;49.83;19.92;;;2.20;99.90;;;;;;5012328;23;20355;-77
2021/12/03 06:47:03;;;;;;;59.60;20.05;;;2.30;99.90;;;;;;5015520;23;20028;-77
2021/12/03 06:49:04;;;;;;;62.55;23.80;;;2.30;99.90;;;;;;5013511;23;20019;-77
2021/12/03 06:51:05;;;;;;;54.50;20.33;;;2.30;99.90;;;;;;5013531;23;20019;-77
2021/12/03 06:53:08;;;;;;;63.40;25.05;;;2.50;99.90;;;;;;5013036;23;20070;-76
2021/12/03 06:55:13;;;;;;;59.40;22.13;;;2.40;99.90;;;;;;5015387;23;20022;-76
2021/12/03 06:57:14;;;;;;;47.33;20.45;;;2.40;99.90;;;;;;5015028;23;20019;-76
2021/12/03 06:59:15;;;;;;;54.28;20.73;;;2.40;99.90;;;;;;5014870;23;20018;-78
2021/12/03 07:01:16;;;;;;;57.75;20.45;;;2.50;99.90;;;;;;5014853;23;20626;-77
2021/12/03 07:03:17;;;;;;;52.03;22.55;;;2.50;99.90;;;;;;5013812;23;20019;-77
2021/12/03 07:05:18;;;;;;;52.95;19.88;;;2.50;99.90;;;;;;5012543;23;20019;-77
2021/12/03 07:07:18;;;;;;;34.00;15.35;;;2.50;99.90;;;;;;5014527;23;20015;-77
2021/12/03 07:09:19;;;;;;;57.60;19.80;;;2.50;99.90;;;;;;5014006;23;20470;-77
2021/12/03 07:11:20;;;;;;;45.35;16.50;;;2.50;99.90;;;;;;5012130;23;20098;-79
2021/12/03 07:13:21;;;;;;;55.28;19.50;;;2.50;99.90;;;;;;5012698;23;20026;-77
2021/12/03 07:15:21;;;;;;;43.10;18.40;;;2.50;99.90;;;;;;5013762;23;20034;-77
2021/12/03 07:17:22;;;;;;;42.65;17.48;;;2.50;99.90;;;;;;5013179;23;20027;-77
2021/12/03 07:19:23;;;;;;;43.40;20.73;;;2.60;99.90;;;;;;5011928;23;20470;-77
2021/12/03 07:21:24;;;;;;;56.17;20.58;;;2.50;99.90;;;;;;5013368;23;20042;-77
2021/12/03 07:23:25;;;;;;;42.83;15.02;;;2.60;99.90;;;;;;5006072;23;20730;-77
2021/12/03 07:25:26;;;;;;;43.80;16.13;;;2.70;99.90;;;;;;5013006;23;20022;-77
2021/12/03 07:27:27;;;;;;;48.15;15.73;;;2.60;99.90;;;;;;5011795;23;20027;-77
2021/12/03 07:29:28;;;;;;;35.58;15.10;;;2.60;99.90;;;;;;5012476;23;20018;-77
2021/12/03 07:31:29;;;;;;;39.75;16.05;;;2.60;99.90;;;;;;5011290;23;20019;-76
2021/12/03 07:33:31;;;;;;;39.22;15.40;;;2.60;99.90;;;;;;5012012;23;20698;-77
2021/12/03 07:35:32;;;;;;;36.78;15.40;;;2.60;99.90;;;;;;5011916;23;20027;-76
2021/12/03 07:37:33;;;;;;;42.63;15.63;;;2.60;99.90;;;;;;5014175;23;20025;-77
2021/12/03 07:39:34;;;;;;;36.55;15.20;;;2.60;99.90;;;;;;5013521;23;20026;-77
2021/12/03 07:41:39;;;;;;;38.78;16.27;;;2.50;99.90;;;;;;5014539;23;20019;-77
2021/12/03 07:43:40;;;;;;;47.10;15.60;;;2.60;99.90;;;;;;5013931;23;20553;-77
2021/12/03 07:45:41;;;;;;;42.40;13.63;;;2.50;99.90;;;;;;5013144;23;20026;-76
2021/12/03 07:47:42;;;;;;;34.20;14.25;;;2.50;99.90;;;;;;5014472;23;20021;-76
2021/12/03 07:49:44;;;;;;;37.63;15.55;;;2.60;99.90;;;;;;5015248;23;20391;-77
2021/12/03 07:51:45;;;;;;;40.00;14.20;;;2.60;99.90;;;;;;5014378;23;20070;-77
2021/12/03 07:53:46;;;;;;;30.77;13.27;;;2.60;99.90;;;;;;5014600;23;20101;-77
2021/12/03 07:55:47;;;;;;;31.60;11.32;;;2.50;99.90;;;;;;5012752;23;20143;-78
2021/12/03 07:57:48;;;;;;;28.05;12.30;;;2.60;99.90;;;;;;5012890;23;20026;-77
2021/12/03 07:59:49;;;;;;;39.65;12.07;;;2.60;99.90;;;;;;5013746;23;20364;-72
2021/12/03 08:01:49;;;;;;;35.33;13.23;;;2.70;99.90;;;;;;5011678;23;20025;-72
2021/12/03 08:03:50;;;;;;;36.33;13.77;;;2.70;99.90;;;;;;5013561;23;20098;-72
2021/12/03 08:05:51;;;;;;;27.30;10.20;;;2.70;99.90;;;;;;5011822;23;20015;-73
2021/12/03 08:07:52;;;;;;;36.67;14.63;;;2.70;99.90;;;;;;5012255;23;20014;-72
2021/12/03 08:09:53;;;;;;;33.80;12.27;;;2.70;99.90;;;;;;5012223;23;20373;-72
2021/12/03 08:11:54;;;;;;;40.38;13.88;;;2.70;99.90;;;;;;5011387;23;20010;-72
2021/12/03 08:13:54;;;;;;;35.45;13.27;;;2.70;99.90;;;;;;5011763;23;20180;-72
2021/12/03 08:15:55;;;;;;;38.38;14.88;;;2.70;99.90;;;;;;5012978;23;20078;-77
2021/12/03 08:17:56;;;;;;;24.58;11.77;;;2.70;99.90;;;;;;5014121;23;20430;-78
2021/12/03 08:19:57;;;;;;;36.88;13.43;;;2.80;99.90;;;;;;5012163;23;20014;-76
2021/12/03 08:21:57;;;;;;;40.92;13.07;;;2.80;99.90;;;;;;5014033;23;20030;-77
2021/12/03 08:24:00;;;;;;;32.70;12.27;;;2.70;99.90;;;;;;5012393;23;20019;-77
2021/12/03 08:26:01;;;;;;;43.20;16.77;;;2.80;99.90;;;;;;5013681;23;20091;-78
2021/12/03 08:28:02;;;;;;;33.65;12.55;;;2.80;99.90;;;;;;5011480;23;20042;-77
2021/12/03 08:30:05;;;;;;;35.55;13.23;;;2.90;99.90;;;;;;5014827;23;20019;-77
2021/12/03 08:32:06;;;;;;;24.77;13.05;;;2.90;99.90;;;;;;5013429;23;20100;-77
2021/12/03 08:34:07;;;;;;;33.28;13.15;;;2.90;99.90;;;;;;5015324;23;20019;-77
2021/12/03 08:36:08;;;;;;;43.08;13.43;;;2.90;99.90;;;;;;5015507;23;20840;-77
2021/12/03 08:38:09;;;;;;;41.67;13.65;;;2.90;99.90;;;;;;5015391;23;20011;-77
2021/12/03 08:40:10;;;;;;;26.42;11.52;;;3.00;99.90;;;;;;5013465;23;20018;-77
2021/12/03 08:42:12;;;;;;;31.20;9.55;;;3.00;99.90;;;;;;5013833;23;20113;-79
2021/12/03 08:44:12;;;;;;;33.28;12.95;;;3.00;99.90;;;;;;5014727;23;20046;-78
2021/12/03 08:46:21;;;;;;;20.45;9.02;;;3.00;99.90;;;;;;5014475;23;20045;-77
2021/12/03 08:48:23;;;;;;;19.90;9.55;;;3.00;99.90;;;;;;5014877;23;20015;-78
2021/12/03 08:50:34;;;;;;;28.70;10.70;;;3.10;99.90;;;;;;5015575;23;20033;-79
2021/12/03 08:52:50;;;;;;;25.23;10.48;;;3.10;99.90;;;;;;5013051;23;20018;-78
2021/12/03 08:54:52;;;;;;;24.30;8.93;;;3.00;99.90;;;;;;5007926;23;20023;-78
2021/12/03 08:56:53;;;;;;;22.42;7.85;;;3.10;99.90;;;;;;5013030;23;20471;-78
2021/12/03 08:58:54;;;;;;;24.77;9.18;;;3.10;99.90;;;;;;5013599;23;20019;-76
2021/12/03 09:00:55;;;;;;;26.13;8.55;;;3.20;99.90;;;;;;5013151;23;20887;-76
2021/12/03 09:02:56;;;;;;;20.45;8.35;;;3.30;99.90;;;;;;5015423;23;20019;-78
2021/12/03 09:04:57;;;;;;;31.23;8.55;;;3.30;99.90;;;;;;5014902;23;20081;-78
2021/12/03 09:06:59;;;;;;;19.52;8.52;;;3.30;99.90;;;;;;5013449;23;20015;-79
2021/12/03 09:09:00;;;;;;;27.10;8.48;;;3.30;99.90;;;;;;5014806;23;20015;-77
2021/12/03 09:11:00;;;;;;;21.02;8.23;;;3.30;99.90;;;;;;5015393;23;20122;-77
2021/12/03 09:13:01;;;;;;;27.17;10.75;;;3.30;99.90;;;;;;5014990;23;20018;-76
2021/12/03 09:15:06;;;;;;;18.48;8.65;;;3.30;99.90;;;;;;5015020;23;20808;-77
2021/12/03 09:19:47;;;;;;;20.70;8.35;;;3.30;99.90;;;;;;5017433;23;22474;-76
2021/12/03 09:21:46;;;;;;;19.27;7.40;;;3.30;99.90;;;;;;5014285;23;20090;-78
2021/12/03 09:24:03;;;;;;;24.67;8.23;;;3.40;99.90;;;;;;5015371;23;20019;-76
2021/12/03 09:26:07;;;;;;;22.58;9.15;;;3.50;99.90;;;;;;5012237;23;20077;-77
2021/12/03 09:28:12;;;;;;;22.13;7.95;;;3.40;99.90;;;;;;5015413;23;20109;-77
2021/12/03 09:30:15;;;;;;;18.05;7.80;;;3.30;99.90;;;;;;5014678;23;20098;-77
2021/12/03 09:32:22;;;;;;;16.67;7.80;;;3.30;99.90;;;;;;5014930;23;20019;-76
2021/12/03 09:34:24;;;;;;;15.68;5.32;;;3.30;99.90;;;;;;5015288;23;20093;-77
2021/12/03 09:36:25;;;;;;;22.50;7.32;;;3.40;99.90;;;;;;5013178;23;20042;-77
2021/12/03 09:38:30;;;;;;;11.43;6.38;;;3.50;99.90;;;;;;5015034;23;20546;-77
2021/12/03 09:40:34;;;;;;;17.67;7.45;;;3.40;99.90;;;;;;5012861;23;20034;-77
2021/12/03 09:42:38;;;;;;;21.27;8.90;;;3.50;99.90;;;;;;5013687;23;20027;-77
2021/12/03 09:44:40;;;;;;;24.65;10.00;;;3.50;99.90;;;;;;5015368;23;20014;-78
2021/12/03 09:46:40;;;;;;;22.02;8.88;;;3.50;99.90;;;;;;5014489;23;20014;-77
2021/12/03 09:51:01;;;;;;;15.13;8.20;;;3.70;99.90;;;;;;5014741;23;20022;-79
2021/12/03 09:53:19;;;;;;;20.95;6.85;;;3.70;99.90;;;;;;5013711;23;20401;-77
2021/12/03 09:55:20;;;;;;;21.00;7.50;;;3.80;99.90;;;;;;5014777;23;20439;-77
2021/12/03 09:57:39;;;;;;;16.85;7.13;;;3.80;99.90;;;;;;5015118;23;20070;-77
2021/12/03 10:02:24;;;;;;;19.70;7.10;;;3.80;99.90;;;;;;5015525;23;20023;-78
2021/12/03 10:15:40;;;;;;;14.38;5.43;;;4.10;99.90;;;;;;5018073;23;20018;-79
2021/12/03 10:17:47;;;;;;;21.13;5.80;;;4.10;99.90;;;;;;5013829;23;20018;-77
2021/12/03 10:20:00;;;;;;;16.15;6.47;;;4.20;99.90;;;;;;5012915;23;20026;-77
2021/12/03 10:22:23;;;;;;;12.43;5.70;;;4.20;99.90;;;;;;5014206;23;20019;-77
2021/12/03 10:27:08;;;;;;;14.70;5.55;;;4.30;99.90;;;;;;5016246;23;20139;-77
2021/12/03 10:36:06;;;;;;;11.52;5.57;;;4.10;99.90;;;;;;5015074;23;20874;-77
2021/12/03 10:38:19;;;;;;;12.75;5.05;;;4.10;99.90;;;;;;5013394;23;20332;-77
2021/12/03 10:40:52;;;;;;;16.00;5.22;;;4.00;99.90;;;;;;5015390;23;20011;-78
2021/12/03 10:43:11;;;;;;;19.48;7.20;;;4.00;99.90;;;;;;5013675;23;20041;-77
2021/12/03 10:50:59;;;;;;;14.50;6.63;;;3.80;99.90;;;;;;5012173;23;20023;-77
2021/12/03 10:52:30;;;;;;;15.88;7.22;;;3.80;99.90;;;;;;4998081;23;20014;-77
2021/12/03 11:29:04;;;;;;;15.95;7.40;;;4.00;99.90;;;;;;4965701;23;20582;-77
2021/12/03 11:38:16;;;;;;;16.42;7.57;;;4.20;99.90;;;;;;5015613;23;20019;-77
2021/12/03 11:41:56;;;;;;;17.45;7.22;;;4.30;99.90;;;;;;5013086;23;20738;-77
2021/12/03 11:44:07;;;;;;;17.75;7.50;;;4.50;99.90;;;;;;5001899;23;20030;-77